Pagrindinis puslapis
METAR-TAF:

METAR-TAF

Oro uostai :

Rafha, Saudo Arabija

platuma: 29-37N, ilguma: 043-29E, Aukštis: 449 m

Dabartinis oras

Ataskaita buvo paskelbta 1 valandą ir 6 minutes, ne 19:00 UTC
Vėjas 13 kt iš Rytų
Temperatūra 24°C
Drėgmė 18%
Slėgis 1014 hPa
Matomumas 10 km arba daugiau
nėra debesų žemiau 1500 m ir nėra kamuolinių lietaus debesų

METAR: OERF 121900Z 09013KT CAVOK 24/M02 Q1014 NOSIG

Laikas: 23:06 (20:06 UTC)

Prognozė

Ataskaita buvo paskelbta 9 valandos ir 6 minutes, ne 11:00 UTC
Prognozė galioja nuo 12 metu 12 UTC su 13 metu 18 UTC
Vėjas 16 kt iš Rytų
Matomumas: 7000 m
Laikinai
nuo 12 metu 12 UTC su 12 metu 18 UTC
Matomumas: 4000 m
Dulkes pustymas
Tapsmas
nuo 13 metu 04 UTC su 13 metu 06 UTC
Vėjas 12 kt iš Šiaurės/Šiaurės Vakarų

TAF: OERF 121100Z 1212/1318 08016KT 7000 NSC TEMPO 1212/1218 4000 BLDU BECMG 1304/1306 33012KT

Orai ataskaitas ir orų prognozės (METAR, TAF).

turimą stotys yra geltonos ir raudonos taškus žemėlapyje.

Perkelti pele per norėdami pamatyti stoties vardą.

Tada spustelėkite, norėdami matyti oro stebėjimo ir prognozės.

Norėdami pakeisti žemėlapį: spustelėkite ant žalios mygtukų su juodo kryžiaus žemyn,; žalią mygtuką su brūkšneliu, jei norite nutolinti; arba žalių rodyklių gretimoms žemėlapius.


METAR-TAF: